LPP3167 SAAP-SABE
Flight info
| Callsign | LPP3167 |
|---|---|
| Flight time | 0h 41m |
| Altitude | 21000 |
| Route | ESKAD W6 SNT SNT8Q |
| Aircraft | B738/M-SDE2E3FGHIRWXY/LB1 |
Departure
| Time | 2026-04-15 21:09 |
|---|---|
| Airport | General Urquiza Airport (SAAP) |
Arrival
| Time | 2026-04-15 21:50 |
|---|---|
| Airport | Aeroparque Jorge Newbery (SABE) |
| Time | Latitude | Longitude | Altitude | Speed | Heading |
|---|---|---|---|---|---|
| 2026-04-15 20:58 | -31.78925 | -60.48317 | 254 ft | 0 kts | 324° |
| 2026-04-15 21:05 | -31.78924 | -60.48318 | 254 ft | 0 kts | 341° |
| 2026-04-15 21:05 | -31.78918 | -60.48313 | 254 ft | 1 kts | 43° |
| 2026-04-15 21:05 | -31.78910 | -60.48291 | 253 ft | 4 kts | 79° |
| 2026-04-15 21:06 | -31.78911 | -60.48249 | 251 ft | 6 kts | 95° |
| 2026-04-15 21:06 | -31.78909 | -60.48189 | 249 ft | 8 kts | 64° |
| 2026-04-15 21:06 | -31.78852 | -60.48155 | 246 ft | 10 kts | 6° |
| 2026-04-15 21:06 | -31.78782 | -60.48143 | 246 ft | 9 kts | 8° |
| 2026-04-15 21:07 | -31.78716 | -60.48132 | 246 ft | 9 kts | 9° |
| 2026-04-15 21:07 | -31.78655 | -60.48120 | 245 ft | 9 kts | 8° |
| 2026-04-15 21:07 | -31.78584 | -60.48108 | 242 ft | 11 kts | 13° |
| 2026-04-15 21:07 | -31.78532 | -60.48040 | 239 ft | 12 kts | 86° |
| 2026-04-15 21:08 | -31.78549 | -60.47943 | 238 ft | 11 kts | 107° |
| 2026-04-15 21:08 | -31.78591 | -60.47884 | 239 ft | 8 kts | 180° |
| 2026-04-15 21:08 | -31.78706 | -60.47901 | 241 ft | 44 kts | 187° |
| 2026-04-15 21:08 | -31.79271 | -60.48001 | 238 ft | 117 kts | 189° |
| 2026-04-15 21:09 | -31.80278 | -60.48179 | 243 ft | 171 kts | 188° |
| 2026-04-15 21:09 | -31.81369 | -60.48352 | 1232 ft | 148 kts | 171° |
| 2026-04-15 21:09 | -31.82268 | -60.47837 | 1762 ft | 156 kts | 133° |
| 2026-04-15 21:09 | -31.82846 | -60.46736 | 2273 ft | 166 kts | 122° |
| 2026-04-15 21:10 | -31.83408 | -60.45524 | 2832 ft | 174 kts | 123° |
| 2026-04-15 21:10 | -31.84042 | -60.44236 | 3311 ft | 192 kts | 123° |
| 2026-04-15 21:10 | -31.84761 | -60.42820 | 3813 ft | 211 kts | 123° |
| 2026-04-15 21:10 | -31.85554 | -60.41296 | 4397 ft | 227 kts | 123° |
| 2026-04-15 21:11 | -31.86430 | -60.39696 | 5010 ft | 240 kts | 128° |
| 2026-04-15 21:11 | -31.87769 | -60.38470 | 5699 ft | 253 kts | 157° |
| 2026-04-15 21:11 | -31.89544 | -60.38302 | 6413 ft | 270 kts | 184° |
| 2026-04-15 21:11 | -31.91418 | -60.38812 | 7204 ft | 278 kts | 190° |
| 2026-04-15 21:12 | -31.93295 | -60.39402 | 7997 ft | 281 kts | 188° |
| 2026-04-15 21:12 | -31.95201 | -60.39697 | 8820 ft | 279 kts | 178° |
| 2026-04-15 21:12 | -31.97139 | -60.39599 | 9661 ft | 278 kts | 169° |
| 2026-04-15 21:12 | -31.99013 | -60.39149 | 10413 ft | 280 kts | 162° |
| 2026-04-15 21:13 | -32.00930 | -60.38444 | 10869 ft | 293 kts | 159° |
| 2026-04-15 21:13 | -32.02874 | -60.37627 | 11384 ft | 304 kts | 158° |
| 2026-04-15 21:13 | -32.04913 | -60.36747 | 11868 ft | 316 kts | 158° |
| 2026-04-15 21:13 | -32.07015 | -60.35845 | 12403 ft | 326 kts | 159° |
| 2026-04-15 21:14 | -32.09176 | -60.34935 | 13016 ft | 332 kts | 159° |
| 2026-04-15 21:14 | -32.11355 | -60.34036 | 13739 ft | 334 kts | 159° |
| 2026-04-15 21:14 | -32.13537 | -60.33133 | 14419 ft | 337 kts | 159° |
| 2026-04-15 21:14 | -32.15768 | -60.32212 | 15061 ft | 340 kts | 159° |
| 2026-04-15 21:15 | -32.18006 | -60.31281 | 15651 ft | 345 kts | 159° |
| 2026-04-15 21:15 | -32.20296 | -60.30313 | 16188 ft | 350 kts | 159° |
| 2026-04-15 21:15 | -32.22580 | -60.29359 | 16791 ft | 353 kts | 160° |
| 2026-04-15 21:15 | -32.24918 | -60.28380 | 17411 ft | 356 kts | 159° |
| 2026-04-15 21:16 | -32.27247 | -60.27406 | 17870 ft | 362 kts | 159° |
| 2026-04-15 21:16 | -32.29667 | -60.26388 | 18372 ft | 368 kts | 160° |
| 2026-04-15 21:16 | -32.32066 | -60.25386 | 18987 ft | 368 kts | 160° |
| 2026-04-15 21:16 | -32.34489 | -60.24378 | 19580 ft | 370 kts | 160° |
| 2026-04-15 21:17 | -32.36911 | -60.23370 | 20050 ft | 375 kts | 160° |
| 2026-04-15 21:17 | -32.39407 | -60.22322 | 20515 ft | 379 kts | 159° |
| 2026-04-15 21:17 | -32.41914 | -60.21262 | 20772 ft | 384 kts | 159° |
| 2026-04-15 21:17 | -32.44419 | -60.20208 | 20770 ft | 381 kts | 160° |
| 2026-04-15 21:18 | -32.46892 | -60.19170 | 20770 ft | 378 kts | 160° |
| 2026-04-15 21:18 | -32.49399 | -60.18119 | 20772 ft | 378 kts | 160° |
| 2026-04-15 21:18 | -32.51893 | -60.17079 | 20790 ft | 381 kts | 159° |
| 2026-04-15 21:18 | -32.54388 | -60.16024 | 20784 ft | 380 kts | 160° |
| 2026-04-15 21:19 | -32.56887 | -60.14970 | 20779 ft | 382 kts | 160° |
| 2026-04-15 21:19 | -32.59389 | -60.13917 | 20776 ft | 380 kts | 160° |
| 2026-04-15 21:19 | -32.61866 | -60.12878 | 20780 ft | 378 kts | 159° |
| 2026-04-15 21:19 | -32.64339 | -60.11840 | 20789 ft | 383 kts | 159° |
| 2026-04-15 21:20 | -32.66866 | -60.10780 | 20789 ft | 383 kts | 159° |
| 2026-04-15 21:20 | -32.69378 | -60.09721 | 20786 ft | 381 kts | 159° |
| 2026-04-15 21:20 | -32.71871 | -60.08670 | 20788 ft | 382 kts | 159° |
| 2026-04-15 21:20 | -32.74398 | -60.07604 | 20795 ft | 383 kts | 159° |
| 2026-04-15 21:21 | -32.76923 | -60.06541 | 20797 ft | 385 kts | 159° |
| 2026-04-15 21:21 | -32.79429 | -60.05487 | 20791 ft | 385 kts | 159° |
| 2026-04-15 21:21 | -32.81978 | -60.04411 | 20789 ft | 383 kts | 160° |
| 2026-04-15 21:21 | -32.84493 | -60.03347 | 20790 ft | 384 kts | 159° |
| 2026-04-15 21:22 | -32.86996 | -60.02287 | 20790 ft | 384 kts | 159° |
| 2026-04-15 21:22 | -32.89533 | -60.01207 | 20799 ft | 385 kts | 159° |
| 2026-04-15 21:22 | -32.92018 | -60.00139 | 20799 ft | 384 kts | 159° |
| 2026-04-15 21:22 | -32.94552 | -59.99060 | 20794 ft | 384 kts | 159° |
| 2026-04-15 21:23 | -32.97060 | -59.97992 | 20794 ft | 385 kts | 159° |
| 2026-04-15 21:23 | -32.99594 | -59.96912 | 20811 ft | 386 kts | 159° |
| 2026-04-15 21:23 | -33.02142 | -59.95832 | 20818 ft | 387 kts | 159° |
| 2026-04-15 21:23 | -33.04671 | -59.94765 | 20824 ft | 385 kts | 159° |
| 2026-04-15 21:24 | -33.07222 | -59.93686 | 20821 ft | 385 kts | 159° |
| 2026-04-15 21:24 | -33.09736 | -59.92618 | 20815 ft | 387 kts | 159° |
| 2026-04-15 21:24 | -33.12284 | -59.91531 | 20811 ft | 386 kts | 159° |
| 2026-04-15 21:24 | -33.14839 | -59.90443 | 20798 ft | 387 kts | 158° |
| 2026-04-15 21:25 | -33.17358 | -59.89366 | 20811 ft | 386 kts | 159° |
| 2026-04-15 21:25 | -33.19922 | -59.88268 | 20813 ft | 387 kts | 158° |
| 2026-04-15 21:25 | -33.22451 | -59.87182 | 20809 ft | 388 kts | 158° |
| 2026-04-15 21:25 | -33.24972 | -59.86103 | 20813 ft | 386 kts | 159° |
| 2026-04-15 21:26 | -33.27523 | -59.85018 | 20818 ft | 386 kts | 158° |
| 2026-04-15 21:26 | -33.30039 | -59.83946 | 20820 ft | 386 kts | 158° |
| 2026-04-15 21:26 | -33.32587 | -59.82853 | 20809 ft | 385 kts | 158° |
| 2026-04-15 21:26 | -33.35128 | -59.81765 | 20815 ft | 386 kts | 158° |
| 2026-04-15 21:27 | -33.37674 | -59.80682 | 20815 ft | 387 kts | 159° |
| 2026-04-15 21:27 | -33.40197 | -59.79601 | 20821 ft | 388 kts | 158° |
| 2026-04-15 21:27 | -33.42750 | -59.78508 | 20824 ft | 390 kts | 158° |
| 2026-04-15 21:27 | -33.45295 | -59.77415 | 20819 ft | 391 kts | 158° |
| 2026-04-15 21:28 | -33.47860 | -59.76315 | 20815 ft | 390 kts | 158° |
| 2026-04-15 21:28 | -33.50429 | -59.75209 | 20822 ft | 391 kts | 158° |
| 2026-04-15 21:28 | -33.52978 | -59.74112 | 20828 ft | 393 kts | 158° |
| 2026-04-15 21:28 | -33.55609 | -59.72979 | 20834 ft | 410 kts | 158° |
| 2026-04-15 21:29 | -33.58367 | -59.71784 | 20825 ft | 426 kts | 158° |
| 2026-04-15 21:29 | -33.61170 | -59.70571 | 20832 ft | 438 kts | 158° |
| 2026-04-15 21:29 | -33.64069 | -59.69310 | 20836 ft | 449 kts | 158° |
| 2026-04-15 21:29 | -33.67063 | -59.68011 | 20836 ft | 459 kts | 158° |
| 2026-04-15 21:30 | -33.70079 | -59.66704 | 20831 ft | 462 kts | 158° |
| 2026-04-15 21:30 | -33.73114 | -59.65390 | 20830 ft | 463 kts | 158° |
| 2026-04-15 21:30 | -33.76141 | -59.64085 | 20835 ft | 465 kts | 158° |
| 2026-04-15 21:30 | -33.79184 | -59.62776 | 20843 ft | 464 kts | 158° |
| 2026-04-15 21:31 | -33.85265 | -59.60169 | 20846 ft | 465 kts | 158° |
| 2026-04-15 21:31 | -33.88303 | -59.58863 | 20834 ft | 451 kts | 158° |
| 2026-04-15 21:32 | -33.93946 | -59.56436 | 20846 ft | 416 kts | 158° |
| 2026-04-15 21:32 | -33.96656 | -59.55266 | 20818 ft | 409 kts | 157° |
| 2026-04-15 21:32 | -33.99323 | -59.54112 | 20570 ft | 402 kts | 158° |
| 2026-04-15 21:32 | -34.01926 | -59.52982 | 20175 ft | 397 kts | 158° |
| 2026-04-15 21:33 | -34.04524 | -59.51850 | 19650 ft | 396 kts | 158° |
| 2026-04-15 21:33 | -34.07135 | -59.50715 | 19063 ft | 397 kts | 158° |
| 2026-04-15 21:33 | -34.09684 | -59.49606 | 18485 ft | 389 kts | 158° |
| 2026-04-15 21:33 | -34.12207 | -59.48508 | 17956 ft | 378 kts | 158° |
| 2026-04-15 21:34 | -34.14634 | -59.47449 | 17411 ft | 373 kts | 158° |
| 2026-04-15 21:34 | -34.17114 | -59.46353 | 16835 ft | 386 kts | 156° |
| 2026-04-15 21:34 | -34.19522 | -59.44969 | 16212 ft | 383 kts | 145° |
| 2026-04-15 21:34 | -34.21493 | -59.42907 | 15623 ft | 365 kts | 124° |
| 2026-04-15 21:35 | -34.22687 | -59.40342 | 15060 ft | 347 kts | 105° |
| 2026-04-15 21:35 | -34.23255 | -59.37566 | 14494 ft | 335 kts | 97° |
| 2026-04-15 21:35 | -34.23640 | -59.34839 | 13995 ft | 333 kts | 96° |
| 2026-04-15 21:35 | -34.24044 | -59.32041 | 13864 ft | 340 kts | 96° |
| 2026-04-15 21:36 | -34.24469 | -59.29220 | 13870 ft | 346 kts | 96° |
| 2026-04-15 21:36 | -34.24908 | -59.26339 | 13875 ft | 349 kts | 96° |
| 2026-04-15 21:36 | -34.25344 | -59.23476 | 13875 ft | 350 kts | 96° |
| 2026-04-15 21:36 | -34.25793 | -59.20560 | 13876 ft | 348 kts | 96° |
| 2026-04-15 21:37 | -34.26228 | -59.17682 | 13875 ft | 348 kts | 96° |
| 2026-04-15 21:37 | -34.26655 | -59.14861 | 13572 ft | 339 kts | 96° |
| 2026-04-15 21:37 | -34.27071 | -59.12108 | 13103 ft | 326 kts | 96° |
| 2026-04-15 21:37 | -34.27462 | -59.09501 | 12625 ft | 315 kts | 95° |
| 2026-04-15 21:38 | -34.27845 | -59.06931 | 12173 ft | 304 kts | 96° |
| 2026-04-15 21:38 | -34.28210 | -59.04480 | 11825 ft | 291 kts | 96° |
| 2026-04-15 21:38 | -34.28564 | -59.02107 | 11402 ft | 283 kts | 96° |
| 2026-04-15 21:38 | -34.28907 | -58.99779 | 10829 ft | 280 kts | 96° |
| 2026-04-15 21:39 | -34.29246 | -58.97487 | 10345 ft | 274 kts | 97° |
| 2026-04-15 21:39 | -34.29573 | -58.95272 | 9941 ft | 266 kts | 97° |
| 2026-04-15 21:39 | -34.29905 | -58.93070 | 9194 ft | 271 kts | 98° |
| 2026-04-15 21:39 | -34.30238 | -58.90838 | 8443 ft | 274 kts | 98° |
| 2026-04-15 21:40 | -34.30580 | -58.88567 | 7670 ft | 276 kts | 99° |
| 2026-04-15 21:40 | -34.30922 | -58.86302 | 7063 ft | 272 kts | 99° |
| 2026-04-15 21:40 | -34.31252 | -58.84098 | 6601 ft | 263 kts | 99° |
| 2026-04-15 21:40 | -34.31572 | -58.81955 | 6134 ft | 255 kts | 99° |
| 2026-04-15 21:41 | -34.31879 | -58.79866 | 5658 ft | 249 kts | 100° |
| 2026-04-15 21:41 | -34.32178 | -58.77845 | 5205 ft | 243 kts | 101° |
| 2026-04-15 21:41 | -34.32692 | -58.75931 | 4877 ft | 234 kts | 117° |
| 2026-04-15 21:41 | -34.33677 | -58.74468 | 4842 ft | 217 kts | 133° |
| 2026-04-15 21:42 | -34.34741 | -58.73275 | 4612 ft | 206 kts | 132° |
| 2026-04-15 21:42 | -34.35752 | -58.72095 | 4310 ft | 195 kts | 130° |
| 2026-04-15 21:42 | -34.36674 | -58.70956 | 4018 ft | 186 kts | 130° |
| 2026-04-15 21:42 | -34.37553 | -58.69858 | 3794 ft | 173 kts | 130° |
| 2026-04-15 21:43 | -34.38356 | -58.68861 | 3700 ft | 156 kts | 129° |
| 2026-04-15 21:43 | -34.39087 | -58.67950 | 3629 ft | 147 kts | 129° |
| 2026-04-15 21:43 | -34.39809 | -58.67043 | 3589 ft | 149 kts | 129° |
| 2026-04-15 21:43 | -34.40540 | -58.66130 | 3523 ft | 152 kts | 130° |
| 2026-04-15 21:44 | -34.41283 | -58.65209 | 3448 ft | 150 kts | 129° |
| 2026-04-15 21:44 | -34.41996 | -58.64302 | 3376 ft | 149 kts | 127° |
| 2026-04-15 21:44 | -34.42645 | -58.63343 | 3303 ft | 147 kts | 124° |
| 2026-04-15 21:44 | -34.43265 | -58.62390 | 3227 ft | 143 kts | 125° |
| 2026-04-15 21:45 | -34.43896 | -58.61424 | 3153 ft | 142 kts | 124° |
| 2026-04-15 21:45 | -34.44549 | -58.60549 | 3070 ft | 139 kts | 134° |
| 2026-04-15 21:45 | -34.45227 | -58.59738 | 2975 ft | 137 kts | 127° |
| 2026-04-15 21:45 | -34.45799 | -58.58835 | 2938 ft | 132 kts | 123° |
| 2026-04-15 21:46 | -34.46348 | -58.57930 | 2939 ft | 134 kts | 124° |
| 2026-04-15 21:46 | -34.46909 | -58.57008 | 2916 ft | 136 kts | 123° |
| 2026-04-15 21:46 | -34.47548 | -58.56166 | 2725 ft | 138 kts | 131° |
| 2026-04-15 21:46 | -34.48173 | -58.55302 | 2482 ft | 132 kts | 124° |
| 2026-04-15 21:47 | -34.48694 | -58.54402 | 2342 ft | 131 kts | 123° |
| 2026-04-15 21:47 | -34.49212 | -58.53518 | 2159 ft | 125 kts | 123° |
| 2026-04-15 21:47 | -34.49707 | -58.52642 | 1996 ft | 124 kts | 122° |
| 2026-04-15 21:47 | -34.50191 | -58.51774 | 1809 ft | 124 kts | 123° |
| 2026-04-15 21:48 | -34.50689 | -58.50899 | 1664 ft | 124 kts | 123° |
| 2026-04-15 21:48 | -34.51183 | -58.50015 | 1492 ft | 127 kts | 123° |
| 2026-04-15 21:48 | -34.51678 | -58.49129 | 1304 ft | 129 kts | 124° |
| 2026-04-15 21:48 | -34.52200 | -58.48204 | 1139 ft | 131 kts | 124° |
| 2026-04-15 21:49 | -34.52710 | -58.47301 | 974 ft | 132 kts | 124° |
| 2026-04-15 21:49 | -34.53204 | -58.46350 | 785 ft | 132 kts | 123° |
| 2026-04-15 21:49 | -34.53753 | -58.45428 | 551 ft | 133 kts | 125° |
| 2026-04-15 21:49 | -34.54260 | -58.44517 | 390 ft | 130 kts | 125° |
| 2026-04-15 21:50 | -34.54792 | -58.43610 | 246 ft | 132 kts | 121° |
| 2026-04-15 21:50 | -34.55314 | -58.42659 | 77 ft | 137 kts | 124° |
| 2026-04-15 21:50 | -34.55822 | -58.41754 | 26 ft | 105 kts | 125° |
| 2026-04-15 21:50 | -34.56112 | -58.41232 | 33 ft | 46 kts | 125° |
| 2026-04-15 21:51 | -34.56177 | -58.41019 | 31 ft | 19 kts | 56° |
| 2026-04-15 21:51 | -34.56169 | -58.41008 | 31 ft | 0 kts | 48° |
| 2026-04-15 21:52 | -34.56161 | -58.40997 | 31 ft | 6 kts | 50° |
| 2026-04-15 21:52 | -34.56126 | -58.40987 | 30 ft | 5 kts | 325° |
| 2026-04-15 21:52 | -34.56097 | -58.41019 | 30 ft | 6 kts | 311° |
| 2026-04-15 21:52 | -34.56054 | -58.41085 | 31 ft | 13 kts | 307° |
| 2026-04-15 21:53 | -34.55991 | -58.41186 | 31 ft | 15 kts | 306° |
| 2026-04-15 21:53 | -34.55928 | -58.41287 | 30 ft | 12 kts | 311° |
| 2026-04-15 21:53 | -34.55863 | -58.41280 | 28 ft | 9 kts | 8° |
| 2026-04-15 21:53 | -34.55814 | -58.41256 | 28 ft | 6 kts | 37° |
| 2026-04-15 21:54 | -34.55807 | -58.41250 | 27 ft | 0 kts | 37° |